createdAt,value
2023-01-01T00:00:54.740Z,14.30
2023-01-01T00:03:24.096Z,14.30
2023-01-01T00:05:53.276Z,14.30
2023-01-01T00:08:22.611Z,14.30
2023-01-01T00:10:51.898Z,14.30
2023-01-01T00:13:21.082Z,14.30
2023-01-01T00:15:50.326Z,14.30
2023-01-01T00:18:21.110Z,14.30
2023-01-01T00:20:50.371Z,14.40
2023-01-01T00:23:19.500Z,14.40
2023-01-01T00:25:48.699Z,14.50
2023-01-01T00:28:18.131Z,14.50
2023-01-01T00:30:47.345Z,14.50
2023-01-01T00:33:16.988Z,14.50
2023-01-01T00:35:47.774Z,14.50
2023-01-01T00:38:17.413Z,14.60
2023-01-01T00:40:46.845Z,14.60
2023-01-01T00:43:16.157Z,14.60
2023-01-01T00:45:48.038Z,14.70
2023-01-01T00:48:17.271Z,14.70
2023-01-01T00:50:47.877Z,14.70
2023-01-01T00:53:17.444Z,14.70
2023-01-01T00:55:46.835Z,14.80
2023-01-01T00:58:16.013Z,14.80
2023-01-01T01:00:45.544Z,14.70
2023-01-01T01:03:28.426Z,14.70
2023-01-01T01:06:01.695Z,14.70
2023-01-01T01:08:32.295Z,14.70
2023-01-01T01:11:06.812Z,14.70
2023-01-01T01:13:36.264Z,14.80
2023-01-01T01:16:10.889Z,14.80
2023-01-01T01:18:40.268Z,14.80
2023-01-01T01:21:11.030Z,14.80
2023-01-01T01:23:40.138Z,14.80
2023-01-01T01:26:14.211Z,14.80
2023-01-01T01:28:49.440Z,14.80
2023-01-01T01:31:19.556Z,14.70
2023-01-01T01:33:49.883Z,14.70
2023-01-01T01:36:21.103Z,14.70
2023-01-01T01:38:50.441Z,14.70
2023-01-01T01:41:28.028Z,14.70
2023-01-01T01:44:01.602Z,14.60
2023-01-01T01:46:36.533Z,14.70
2023-01-01T01:49:11.006Z,14.80
2023-01-01T01:51:42.749Z,14.90
2023-01-01T01:54:16.641Z,14.90
2023-01-01T01:56:51.354Z,14.90
2023-01-01T01:59:22.665Z,14.80
2023-01-01T02:01:52.049Z,14.80
2023-01-01T02:04:21.385Z,14.80
2023-01-01T02:06:53.255Z,14.80
2023-01-01T02:09:23.258Z,14.80
2023-01-01T02:11:52.454Z,14.80
2023-01-01T02:14:21.658Z,14.70
2023-01-01T02:16:55.277Z,14.80
2023-01-01T02:19:37.920Z,14.70
2023-01-01T02:22:16.518Z,14.80
2023-01-01T02:25:06.520Z,14.80
2023-01-01T02:27:47.128Z,14.90
2023-01-01T02:30:18.693Z,14.90
2023-01-01T02:32:51.176Z,14.90
2023-01-01T02:35:36.783Z,15.00
2023-01-01T02:38:10.097Z,15.10
2023-01-01T02:40:44.835Z,14.90
2023-01-01T02:43:14.262Z,14.90
2023-01-01T02:45:45.044Z,15.00
2023-01-01T02:48:39.205Z,15.00
2023-01-01T02:51:19.318Z,15.00
2023-01-01T02:53:54.238Z,15.10
2023-01-01T02:56:35.074Z,15.10
2023-01-01T02:59:35.056Z,15.10
2023-01-01T03:02:18.840Z,15.10
2023-01-01T03:04:59.745Z,15.00
2023-01-01T03:07:37.772Z,15.00
2023-01-01T03:10:15.437Z,15.10
2023-01-01T03:12:50.384Z,15.10
2023-01-01T03:15:26.175Z,15.00
2023-01-01T03:18:03.755Z,15.10
2023-01-01T03:20:40.259Z,15.10
2023-01-01T03:23:14.049Z,15.10
2023-01-01T03:25:48.966Z,15.20
2023-01-01T03:28:21.327Z,15.20
2023-01-01T03:30:52.298Z,15.20
2023-01-01T03:33:26.713Z,15.10
2023-01-01T03:36:00.820Z,15.20
2023-01-01T03:38:35.667Z,15.20
2023-01-01T03:41:08.284Z,15.10
2023-01-01T03:43:45.876Z,15.10
2023-01-01T03:46:16.132Z,15.10
2023-01-01T03:49:04.180Z,15.10
2023-01-01T03:51:57.660Z,15.20
2023-01-01T03:54:38.664Z,15.20
2023-01-01T03:57:14.537Z,15.20
2023-01-01T03:59:50.836Z,15.20
2023-01-01T04:02:23.544Z,15.20
2023-01-01T04:04:54.851Z,15.20
2023-01-01T04:07:25.742Z,15.30
2023-01-01T04:09:57.991Z,15.30
2023-01-01T04:12:27.360Z,15.30
2023-01-01T04:14:56.548Z,15.30
2023-01-01T04:17:25.777Z,15.20
2023-01-01T04:19:56.355Z,15.30
2023-01-01T04:22:25.649Z,15.30
2023-01-01T04:24:54.810Z,15.20
2023-01-01T04:27:23.932Z,15.20
2023-01-01T04:29:53.222Z,15.20
2023-01-01T04:32:22.995Z,15.30
2023-01-01T04:34:52.110Z,15.20
2023-01-01T04:37:22.893Z,15.30
2023-01-01T04:39:52.730Z,15.40
2023-01-01T04:42:21.993Z,15.40
2023-01-01T04:44:51.187Z,15.30
2023-01-01T04:47:20.502Z,15.30
2023-01-01T04:49:49.770Z,15.40
2023-01-01T04:52:19.041Z,15.30
2023-01-01T04:54:49.785Z,15.40
2023-01-01T04:57:19.036Z,15.40
2023-01-01T04:59:48.276Z,15.40
2023-01-01T05:02:17.523Z,15.40
2023-01-01T05:04:46.807Z,15.40
2023-01-01T05:07:16.630Z,15.50
2023-01-01T05:09:45.886Z,15.50
2023-01-01T05:12:16.887Z,15.50
2023-01-01T05:14:46.175Z,15.50
2023-01-01T05:17:15.880Z,15.50
2023-01-01T05:19:45.105Z,15.50
2023-01-01T05:22:14.203Z,15.60
2023-01-01T05:24:43.450Z,15.70
2023-01-01T05:27:12.592Z,15.70
2023-01-01T05:29:43.299Z,15.80
2023-01-01T05:34:40.242Z,15.80
2023-01-01T05:37:09.541Z,15.80
2023-01-01T05:39:38.769Z,15.80
2023-01-01T05:42:07.957Z,15.80
2023-01-01T05:44:37.170Z,15.80
2023-01-01T05:47:07.806Z,15.80
2023-01-01T05:49:36.992Z,15.80
2023-01-01T05:52:06.398Z,15.70
2023-01-01T05:54:35.604Z,15.80
2023-01-01T05:57:04.975Z,15.70
2023-01-01T05:59:34.176Z,15.70
2023-01-01T06:02:03.450Z,15.70
2023-01-01T06:04:34.130Z,15.80
2023-01-01T06:07:03.442Z,15.70
2023-01-01T06:09:32.634Z,15.70
2023-01-01T06:12:01.791Z,15.70
2023-01-01T06:14:30.999Z,15.70
2023-01-01T06:17:00.367Z,15.70
2023-01-01T06:19:29.652Z,15.70
2023-01-01T06:22:00.465Z,15.70
2023-01-01T06:24:33.871Z,15.70
2023-01-01T06:27:07.282Z,15.60
2023-01-01T06:29:36.476Z,15.60
2023-01-01T06:32:06.179Z,15.60
2023-01-01T06:34:35.810Z,15.60
2023-01-01T06:37:07.275Z,15.60
2023-01-01T06:39:36.578Z,15.60
2023-01-01T06:42:05.971Z,15.60
2023-01-01T06:44:35.219Z,15.50
2023-01-01T06:47:04.486Z,15.50
2023-01-01T06:49:33.721Z,15.50
2023-01-01T06:52:02.975Z,15.40
2023-01-01T06:54:33.581Z,15.40
2023-01-01T06:57:02.859Z,15.40
2023-01-01T06:59:32.590Z,15.40
2023-01-01T07:02:01.787Z,15.30
2023-01-01T07:04:31.667Z,15.30
2023-01-01T07:07:01.490Z,15.30
2023-01-01T07:09:30.908Z,15.30
2023-01-01T07:12:02.249Z,15.30
2023-01-01T07:14:31.456Z,15.30
2023-01-01T07:17:00.714Z,15.30
2023-01-01T07:19:30.109Z,15.30
2023-01-01T07:21:59.403Z,15.30
2023-01-01T07:24:28.576Z,15.40
2023-01-01T07:26:57.749Z,15.30
2023-01-01T07:29:28.342Z,15.40
2023-01-01T07:31:57.499Z,15.40
2023-01-01T07:34:26.775Z,15.40
2023-01-01T07:36:56.887Z,15.40
2023-01-01T07:39:26.073Z,15.50
2023-01-01T07:41:55.302Z,15.50
2023-01-01T07:44:24.495Z,15.50
2023-01-01T07:47:03.942Z,15.60
2023-01-01T07:49:33.248Z,15.70
2023-01-01T07:52:02.576Z,15.80
2023-01-01T07:54:31.741Z,16.00
2023-01-01T07:57:00.863Z,16.30
2023-01-01T07:59:30.223Z,16.60
2023-01-01T08:02:00.882Z,16.80
2023-01-01T08:04:30.146Z,17.00
2023-01-01T08:06:59.437Z,17.20
2023-01-01T08:09:28.592Z,17.40
2023-01-01T08:11:58.921Z,17.40
2023-01-01T08:14:28.105Z,17.50
2023-01-01T08:16:57.300Z,17.70
2023-01-01T08:19:27.974Z,17.80
2023-01-01T08:21:57.239Z,18.10
2023-01-01T08:24:26.435Z,18.20
2023-01-01T08:26:55.863Z,18.30
2023-01-01T08:29:24.966Z,18.40
2023-01-01T08:31:54.096Z,18.70
2023-01-01T08:34:23.267Z,18.90
2023-01-01T08:36:53.984Z,19.20
2023-01-01T08:39:23.181Z,19.40
2023-01-01T08:41:52.463Z,19.40
2023-01-01T08:44:22.037Z,19.60
2023-01-01T08:46:54.126Z,19.60
2023-01-01T08:49:23.462Z,19.70
2023-01-01T08:51:53.983Z,19.60
2023-01-01T08:54:23.309Z,19.80
2023-01-01T08:56:52.853Z,19.80
2023-01-01T08:59:22.175Z,19.80
2023-01-01T09:01:52.057Z,19.80
2023-01-01T09:04:21.448Z,20.00
2023-01-01T09:06:51.147Z,20.00
2023-01-01T09:09:27.287Z,20.30
2023-01-01T09:12:06.303Z,20.50
2023-01-01T09:14:36.018Z,20.50
2023-01-01T09:17:05.673Z,20.60
2023-01-01T09:19:38.324Z,20.70
2023-01-01T09:22:13.970Z,20.80
2023-01-01T09:24:46.816Z,20.90
2023-01-01T09:27:16.412Z,21.00
2023-01-01T09:29:50.193Z,21.10
2023-01-01T09:32:24.097Z,21.20
2023-01-01T09:35:00.282Z,21.20
2023-01-01T09:37:31.577Z,21.10
2023-01-01T09:40:03.361Z,20.90
2023-01-01T09:42:45.270Z,20.70
2023-01-01T09:45:23.540Z,20.60
2023-01-01T09:47:59.560Z,20.50
2023-01-01T09:50:36.883Z,20.40
2023-01-01T09:53:11.891Z,20.40
2023-01-01T09:55:47.604Z,20.40
2023-01-01T09:58:17.667Z,20.30
2023-01-01T10:00:52.867Z,20.30
2023-01-01T10:03:31.907Z,20.10
2023-01-01T10:06:14.985Z,20.10
2023-01-01T10:08:58.411Z,20.00
2023-01-01T10:11:39.428Z,20.00
2023-01-01T10:14:20.010Z,20.20
2023-01-01T10:16:53.061Z,20.30
2023-01-01T10:19:30.199Z,20.30
2023-01-01T10:22:05.226Z,20.20
2023-01-01T10:24:48.256Z,20.30
2023-01-01T10:27:29.546Z,20.30
2023-01-01T10:30:04.260Z,20.20
2023-01-01T10:32:41.251Z,20.20
2023-01-01T10:35:16.168Z,20.10
2023-01-01T10:37:46.647Z,20.00
2023-01-01T10:40:19.221Z,20.00
2023-01-01T10:42:57.867Z,19.90
2023-01-01T10:45:35.839Z,20.00
2023-01-01T10:48:13.926Z,20.10
2023-01-01T10:50:46.439Z,20.00
2023-01-01T10:53:36.077Z,20.00
2023-01-01T10:56:10.194Z,20.00
2023-01-01T10:58:43.932Z,20.00
2023-01-01T11:01:20.937Z,20.10
2023-01-01T11:04:00.681Z,20.10
2023-01-01T11:06:34.322Z,20.20
2023-01-01T11:09:07.286Z,20.30
2023-01-01T11:11:45.802Z,20.30
2023-01-01T11:14:23.829Z,20.40
2023-01-01T11:16:53.675Z,20.40
2023-01-01T11:19:26.447Z,20.30
2023-01-01T11:21:55.962Z,20.20
2023-01-01T11:24:28.395Z,20.20
2023-01-01T11:27:24.215Z,20.20
2023-01-01T11:30:26.672Z,20.20
2023-01-01T11:33:00.943Z,20.20
2023-01-01T11:35:33.469Z,20.40
2023-01-01T11:38:05.182Z,20.30
2023-01-01T11:40:39.957Z,20.30
2023-01-01T11:43:09.304Z,20.30
2023-01-01T11:45:44.313Z,20.30
2023-01-01T11:48:18.601Z,20.20
2023-01-01T11:50:54.215Z,20.10
2023-01-01T11:53:31.860Z,20.10
2023-01-01T11:56:07.879Z,20.00
2023-01-01T11:58:45.468Z,20.00
2023-01-01T12:01:22.762Z,20.10
2023-01-01T12:03:58.938Z,20.00
2023-01-01T12:06:33.966Z,20.10
2023-01-01T12:09:18.125Z,20.00
2023-01-01T12:11:53.023Z,19.90
2023-01-01T12:14:32.556Z,19.90
2023-01-01T12:17:13.560Z,20.00
2023-01-01T12:19:49.042Z,19.90
2023-01-01T12:22:20.412Z,19.90
2023-01-01T12:24:51.134Z,19.90
2023-01-01T12:27:33.228Z,19.90
2023-01-01T12:30:16.902Z,19.90
2023-01-01T12:33:08.303Z,19.80
2023-01-01T12:35:46.701Z,19.80
2023-01-01T12:38:27.690Z,19.80
2023-01-01T12:41:05.459Z,19.80
2023-01-01T12:43:44.853Z,19.80
2023-01-01T12:46:37.689Z,19.70
2023-01-01T12:49:38.964Z,19.70
2023-01-01T12:52:22.514Z,19.60
2023-01-01T12:55:27.771Z,19.40
2023-01-01T12:58:02.846Z,19.40
2023-01-01T13:00:34.963Z,19.40
2023-01-01T13:03:09.261Z,19.40
2023-01-01T13:05:43.816Z,19.30
2023-01-01T13:08:13.154Z,19.30
2023-01-01T13:10:45.764Z,19.20
2023-01-01T13:13:16.279Z,19.20
2023-01-01T13:15:48.777Z,19.10
2023-01-01T13:18:24.592Z,19.00
2023-01-01T13:21:01.358Z,18.90
2023-01-01T13:24:01.408Z,18.90
2023-01-01T13:26:49.440Z,18.90
2023-01-01T13:29:46.212Z,18.90
2023-01-01T13:32:16.466Z,18.70
2023-01-01T13:35:17.040Z,18.60
2023-01-01T13:37:49.829Z,18.60
2023-01-01T13:40:47.438Z,18.60
2023-01-01T13:43:28.735Z,18.60
2023-01-01T13:46:11.712Z,18.60
2023-01-01T13:49:17.396Z,18.50
2023-01-01T13:52:19.777Z,18.50
2023-01-01T13:55:17.687Z,18.40
2023-01-01T13:58:22.269Z,18.30
2023-01-01T14:01:09.284Z,18.20
2023-01-01T14:03:43.491Z,18.10
2023-01-01T14:06:16.575Z,18.10
2023-01-01T14:08:45.819Z,18.10
2023-01-01T14:11:23.518Z,18.00
2023-01-01T14:13:52.904Z,17.90
2023-01-01T14:16:22.260Z,17.90
2023-01-01T14:18:53.634Z,17.80
2023-01-01T14:21:25.819Z,17.80
2023-01-01T14:23:57.844Z,17.70
2023-01-01T14:26:29.938Z,17.70
2023-01-01T14:29:00.716Z,17.60
2023-01-01T14:31:32.393Z,17.60
2023-01-01T14:34:02.649Z,17.60
2023-01-01T14:36:33.385Z,17.50
2023-01-01T14:39:03.005Z,17.50
2023-01-01T14:41:35.858Z,17.50
2023-01-01T14:44:08.250Z,17.40
2023-01-01T14:46:42.507Z,17.40
2023-01-01T14:49:16.935Z,17.40
2023-01-01T14:51:51.979Z,17.30
2023-01-01T14:54:22.831Z,17.30
2023-01-01T14:56:53.960Z,17.30
2023-01-01T14:59:28.279Z,17.20
2023-01-01T15:02:02.562Z,17.20
2023-01-01T15:04:32.062Z,17.20
2023-01-01T15:07:03.057Z,17.20
2023-01-01T15:09:34.280Z,17.20
2023-01-01T15:12:06.093Z,17.10
2023-01-01T15:14:39.823Z,17.00
2023-01-01T15:17:11.039Z,17.00
2023-01-01T15:19:42.139Z,17.00
2023-01-01T15:22:13.490Z,17.00
2023-01-01T15:24:46.249Z,16.90
2023-01-01T15:27:25.819Z,16.90
2023-01-01T15:29:57.133Z,16.80
2023-01-01T15:32:28.878Z,16.80
2023-01-01T15:34:59.828Z,16.70
2023-01-01T15:37:34.924Z,16.60
2023-01-01T15:40:33.390Z,16.60
2023-01-01T15:43:19.857Z,16.50
2023-01-01T15:45:57.324Z,16.60
2023-01-01T15:48:32.481Z,16.40
2023-01-01T15:51:14.786Z,16.40
2023-01-01T15:53:57.224Z,16.40
2023-01-01T15:56:28.621Z,16.40
2023-01-01T15:59:08.831Z,16.30
2023-01-01T16:01:40.777Z,16.30
2023-01-01T16:04:12.047Z,16.30
2023-01-01T16:06:46.135Z,16.20
2023-01-01T16:09:16.187Z,16.10
2023-01-01T16:11:46.206Z,16.10
2023-01-01T16:14:17.690Z,16.00
2023-01-01T16:16:52.591Z,16.00
2023-01-01T16:19:24.117Z,16.00
2023-01-01T16:21:53.393Z,16.00
2023-01-01T16:24:23.001Z,15.90
2023-01-01T16:26:52.548Z,15.90
2023-01-01T16:29:23.403Z,15.90
2023-01-01T16:31:53.620Z,15.90
2023-01-01T16:34:23.065Z,15.90
2023-01-01T16:36:52.271Z,15.80
2023-01-01T16:39:21.571Z,15.80
2023-01-01T16:41:51.071Z,15.80
2023-01-01T16:44:20.639Z,15.80
2023-01-01T16:46:51.726Z,15.80
2023-01-01T16:49:21.253Z,15.80
2023-01-01T16:51:50.957Z,15.80
2023-01-01T16:54:20.333Z,15.80
2023-01-01T16:56:50.150Z,15.80
2023-01-01T16:59:19.701Z,15.80
2023-01-01T17:01:50.723Z,15.70
2023-01-01T17:04:20.036Z,15.70
2023-01-01T17:06:49.486Z,15.70
2023-01-01T17:09:18.868Z,15.70
2023-01-01T17:11:48.249Z,15.60
2023-01-01T17:14:17.560Z,15.60
2023-01-01T17:16:47.217Z,15.60
2023-01-01T17:19:21.068Z,15.60
2023-01-01T17:21:50.987Z,15.60
2023-01-01T17:24:21.593Z,15.60
2023-01-01T17:26:53.309Z,15.60
2023-01-01T17:29:23.128Z,15.50
2023-01-01T17:31:53.575Z,15.50
2023-01-01T17:34:24.596Z,15.50
2023-01-01T17:36:55.136Z,15.50
2023-01-01T17:39:27.731Z,15.40
2023-01-01T17:41:58.246Z,15.40
2023-01-01T17:44:27.915Z,15.40
2023-01-01T17:46:57.913Z,15.30
2023-01-01T17:49:28.880Z,15.30
2023-01-01T17:52:02.235Z,15.20
2023-01-01T17:54:34.088Z,15.20
2023-01-01T17:57:04.667Z,15.20
2023-01-01T17:59:35.175Z,15.10
2023-01-01T18:02:06.290Z,15.10
2023-01-01T18:04:37.892Z,15.10
2023-01-01T18:07:07.738Z,15.00
2023-01-01T18:09:38.620Z,15.00
2023-01-01T18:12:08.408Z,14.90
2023-01-01T18:14:37.775Z,15.00
2023-01-01T18:17:07.331Z,14.90
2023-01-01T18:19:39.459Z,14.90
2023-01-01T18:22:09.253Z,14.90
2023-01-01T18:24:39.053Z,14.80
2023-01-01T18:27:09.830Z,14.80
2023-01-01T18:29:39.732Z,14.80
2023-01-01T18:32:09.530Z,14.80
2023-01-01T18:34:40.752Z,14.80
2023-01-01T18:37:10.033Z,14.70
2023-01-01T18:39:42.112Z,14.70
2023-01-01T18:42:36.227Z,14.60
2023-01-01T18:45:17.019Z,14.70
2023-01-01T18:47:47.245Z,14.70
2023-01-01T18:50:24.464Z,14.70
2023-01-01T18:53:08.593Z,14.70
2023-01-01T18:55:38.274Z,14.70
2023-01-01T18:58:18.034Z,14.60
2023-01-01T19:00:50.192Z,14.60
2023-01-01T19:03:28.708Z,14.60
2023-01-01T19:06:03.299Z,14.60
2023-01-01T19:08:32.845Z,14.50
2023-01-01T19:11:03.920Z,14.50
2023-01-01T19:13:35.373Z,14.50
2023-01-01T19:16:23.893Z,14.40
2023-01-01T19:18:58.971Z,14.50
2023-01-01T19:21:30.415Z,14.50
2023-01-01T19:24:03.482Z,14.40
2023-01-01T19:26:36.738Z,14.40
2023-01-01T19:29:15.164Z,14.50
2023-01-01T19:31:44.924Z,14.40
2023-01-01T19:34:14.623Z,14.40
2023-01-01T19:36:46.611Z,14.30
2023-01-01T19:39:16.886Z,14.30
2023-01-01T19:41:46.313Z,14.30
2023-01-01T19:44:21.407Z,14.30
2023-01-01T19:46:54.038Z,14.20
2023-01-01T19:49:24.177Z,14.20
2023-01-01T19:51:55.560Z,14.20
2023-01-01T19:54:25.696Z,14.20
2023-01-01T19:56:59.127Z,14.10
2023-01-01T19:59:33.227Z,14.10
2023-01-01T20:02:43.471Z,14.10
2023-01-01T20:04:55.588Z,14.20
2023-01-01T20:07:27.604Z,14.10
2023-01-01T20:10:01.220Z,14.10
2023-01-01T20:12:32.409Z,14.10
2023-01-01T20:15:04.867Z,14.00
2023-01-01T20:17:35.940Z,14.00
2023-01-01T20:20:10.613Z,14.00
2023-01-01T20:22:45.708Z,14.00
2023-01-01T20:25:17.952Z,14.00
2023-01-01T20:28:05.973Z,14.00
2023-01-01T20:30:37.919Z,14.00
2023-01-01T20:33:11.118Z,13.90
2023-01-01T20:36:07.581Z,13.90
2023-01-01T20:38:40.710Z,13.90
2023-01-01T20:41:26.047Z,13.80
2023-01-01T20:43:59.619Z,13.80
2023-01-01T20:46:31.192Z,13.80
2023-01-01T20:49:03.800Z,13.80
2023-01-01T20:51:35.569Z,13.80
2023-01-01T20:54:08.881Z,13.80
2023-01-01T20:56:40.585Z,13.80
2023-01-01T20:59:34.250Z,13.80
2023-01-01T21:02:04.165Z,13.80
2023-01-01T21:04:39.547Z,13.80
2023-01-01T21:07:11.805Z,13.80
2023-01-01T21:09:45.942Z,13.80
2023-01-01T21:12:17.839Z,13.90
2023-01-01T21:14:48.484Z,13.90
2023-01-01T21:17:23.252Z,13.90
2023-01-01T21:19:57.155Z,13.80
2023-01-01T21:22:29.966Z,13.80
2023-01-01T21:25:24.396Z,13.90
2023-01-01T21:27:53.623Z,13.90
2023-01-01T21:30:23.224Z,13.90
2023-01-01T21:32:52.808Z,13.80
2023-01-01T21:35:24.461Z,13.80
2023-01-01T21:37:56.317Z,13.90
2023-01-01T21:40:40.264Z,13.90
2023-01-01T21:43:28.204Z,13.90
2023-01-01T21:46:01.420Z,13.90
2023-01-01T21:48:33.741Z,13.90
2023-01-01T21:51:03.784Z,13.90
2023-01-01T21:53:36.141Z,13.90
2023-01-01T21:56:27.576Z,13.80
2023-01-01T21:59:19.945Z,13.70
2023-01-01T22:01:51.590Z,13.70
2023-01-01T22:04:23.459Z,13.70
2023-01-01T22:06:54.387Z,13.70
2023-01-01T22:09:26.137Z,13.60
2023-01-01T22:12:03.968Z,13.60
2023-01-01T22:14:39.223Z,13.60
2023-01-01T22:17:16.137Z,13.60
2023-01-01T22:19:46.353Z,13.60
2023-01-01T22:22:17.696Z,13.60
2023-01-01T22:24:52.072Z,13.60
2023-01-01T22:27:33.601Z,13.50
2023-01-01T22:30:32.017Z,13.50
2023-01-01T22:33:02.320Z,13.40
2023-01-01T22:35:33.645Z,13.40
2023-01-01T22:38:04.602Z,13.40
2023-01-01T22:40:36.107Z,13.40
2023-01-01T22:43:12.379Z,13.30
2023-01-01T22:45:45.181Z,13.20
2023-01-01T22:48:20.485Z,13.20
2023-01-01T22:50:50.195Z,13.10
2023-01-01T22:53:19.386Z,13.10
2023-01-01T22:55:48.488Z,13.10
2023-01-01T22:58:19.094Z,13.10
2023-01-01T23:00:48.687Z,13.10
2023-01-01T23:03:17.853Z,13.10
2023-01-01T23:05:47.082Z,13.00
2023-01-01T23:08:16.200Z,13.10
2023-01-01T23:10:45.396Z,13.00
2023-01-01T23:13:31.796Z,12.90
2023-01-01T23:16:03.121Z,12.90
2023-01-01T23:18:34.199Z,12.80
2023-01-01T23:21:05.628Z,12.70
2023-01-01T23:23:34.972Z,12.70
2023-01-01T23:26:04.970Z,12.70
2023-01-01T23:28:34.086Z,12.60
2023-01-01T23:31:06.577Z,12.70
2023-01-01T23:33:36.057Z,12.60
2023-01-01T23:36:05.865Z,12.60
2023-01-01T23:38:35.481Z,12.50
2023-01-01T23:41:04.544Z,12.50
2023-01-01T23:43:34.517Z,12.50
2023-01-01T23:46:07.212Z,12.40
2023-01-01T23:48:36.830Z,12.30
2023-01-01T23:51:06.685Z,12.40
2023-01-01T23:53:35.881Z,12.30
2023-01-01T23:56:05.053Z,12.30
2023-01-01T23:58:34.170Z,12.30
